Decoded Metar for SKIP (IPIALES in COLOMBIA) (IATA:IPI) | Meteo·Mobile Aviation Weather
aviador You're here:

SKIP Decoded Metar

IPIALES in COLOMBIA
Report Time2019-07-15 21:00:00
UTC Time2019-07-15 21:57:07
Flight Rules vfr VFR
Wind110° at 13 kt
W.Decomp.*RWY 06: 8.0 kt HW 10.2 kt RCW
Visibility9999 m
Phenomena:N/A
Clouds:Scattered 018 Hf
Expected CloudBase > 2,400 ft AGL from Temp-Dew spread
CeilingNone
Temp13°C (ISA +17)
Dew Point07°C (67% RH)
AAT7.6°C
QNH1028 hPa
Density Alt11,365 ft
Elevation9,715 ft
Report Wrong Elevation
Raw Report
SKIP 152100Z 11013KT 9999 SCT018 13/07 A3036=

Extra information for SKIP:More info

Metar Taf Metar & Taf Last 4 Metars F.Rules Stats Wind Profile Meteogram Temp Stats Airport Information Weather charts Add Link Nearby VenuesMetar ALERT Operation Metar Decoded Social comments